sensor_id;sensor_type;location;lat;lon;timestamp;temperature;humidity
19974;DHT22;10148;47.694;9.442;2023-02-01T00:01:59;3.80;99.90
19974;DHT22;10148;47.694;9.442;2023-02-01T00:04:26;3.80;99.90
19974;DHT22;10148;47.694;9.442;2023-02-01T00:06:51;3.80;99.90
19974;DHT22;10148;47.694;9.442;2023-02-01T00:09:17;3.80;99.90
19974;DHT22;10148;47.694;9.442;2023-02-01T00:11:42;3.80;99.90
19974;DHT22;10148;47.694;9.442;2023-02-01T00:14:08;3.80;99.90
19974;DHT22;10148;47.694;9.442;2023-02-01T00:16:35;3.80;99.90
19974;DHT22;10148;47.694;9.442;2023-02-01T00:19:01;3.80;99.90
19974;DHT22;10148;47.694;9.442;2023-02-01T00:21:28;3.80;99.90
19974;DHT22;10148;47.694;9.442;2023-02-01T00:23:53;3.90;99.90
19974;DHT22;10148;47.694;9.442;2023-02-01T00:26:37;3.90;99.90
19974;DHT22;10148;47.694;9.442;2023-02-01T00:29:05;3.90;99.90
19974;DHT22;10148;47.694;9.442;2023-02-01T00:31:31;3.90;99.90
19974;DHT22;10148;47.694;9.442;2023-02-01T00:33:57;3.90;99.90
19974;DHT22;10148;47.694;9.442;2023-02-01T00:36:22;3.90;99.90
19974;DHT22;10148;47.694;9.442;2023-02-01T00:38:48;3.90;99.90
19974;DHT22;10148;47.694;9.442;2023-02-01T00:41:17;4.00;99.90
19974;DHT22;10148;47.694;9.442;2023-02-01T00:43:43;3.90;99.90
19974;DHT22;10148;47.694;9.442;2023-02-01T00:46:09;3.90;99.90
19974;DHT22;10148;47.694;9.442;2023-02-01T00:48:35;3.90;99.90
19974;DHT22;10148;47.694;9.442;2023-02-01T00:51:03;3.90;99.90
19974;DHT22;10148;47.694;9.442;2023-02-01T00:53:29;3.90;99.90
19974;DHT22;10148;47.694;9.442;2023-02-01T00:55:55;4.00;99.90
19974;DHT22;10148;47.694;9.442;2023-02-01T00:58:21;4.00;99.90
19974;DHT22;10148;47.694;9.442;2023-02-01T01:00:49;3.90;99.90
19974;DHT22;10148;47.694;9.442;2023-02-01T01:03:15;3.90;99.90
19974;DHT22;10148;47.694;9.442;2023-02-01T01:05:49;3.90;99.90
19974;DHT22;10148;47.694;9.442;2023-02-01T01:08:16;4.00;99.90
19974;DHT22;10148;47.694;9.442;2023-02-01T01:10:42;4.00;99.90
19974;DHT22;10148;47.694;9.442;2023-02-01T01:13:08;4.00;99.90
19974;DHT22;10148;47.694;9.442;2023-02-01T01:15:38;4.00;99.90
19974;DHT22;10148;47.694;9.442;2023-02-01T01:18:03;4.00;99.90
19974;DHT22;10148;47.694;9.442;2023-02-01T01:20:29;4.00;99.90
19974;DHT22;10148;47.694;9.442;2023-02-01T01:22:55;3.90;99.90
19974;DHT22;10148;47.694;9.442;2023-02-01T01:25:20;4.00;99.90
19974;DHT22;10148;47.694;9.442;2023-02-01T01:27:46;4.00;99.90
19974;DHT22;10148;47.694;9.442;2023-02-01T01:30:12;4.00;99.90
19974;DHT22;10148;47.694;9.442;2023-02-01T01:32:37;4.00;99.90
19974;DHT22;10148;47.694;9.442;2023-02-01T01:35:03;4.00;99.90
19974;DHT22;10148;47.694;9.442;2023-02-01T01:37:29;3.90;99.90
19974;DHT22;10148;47.694;9.442;2023-02-01T01:39:54;4.00;99.90
19974;DHT22;10148;47.694;9.442;2023-02-01T01:42:21;3.90;99.90
19974;DHT22;10148;47.694;9.442;2023-02-01T01:45:05;3.90;99.90
19974;DHT22;10148;47.694;9.442;2023-02-01T01:47:37;3.90;99.90
19974;DHT22;10148;47.694;9.442;2023-02-01T01:50:07;3.90;99.90
19974;DHT22;10148;47.694;9.442;2023-02-01T01:52:34;3.90;99.90
19974;DHT22;10148;47.694;9.442;2023-02-01T01:55:02;3.90;99.90
19974;DHT22;10148;47.694;9.442;2023-02-01T01:57:33;3.90;99.90
19974;DHT22;10148;47.694;9.442;2023-02-01T02:00:09;3.90;99.90
19974;DHT22;10148;47.694;9.442;2023-02-01T02:02:36;3.90;99.90
19974;DHT22;10148;47.694;9.442;2023-02-01T02:05:02;3.90;99.90
19974;DHT22;10148;47.694;9.442;2023-02-01T02:07:33;3.90;99.90
19974;DHT22;10148;47.694;9.442;2023-02-01T02:10:02;3.90;99.90
19974;DHT22;10148;47.694;9.442;2023-02-01T02:12:31;3.90;99.90
19974;DHT22;10148;47.694;9.442;2023-02-01T02:14:57;3.90;99.90
19974;DHT22;10148;47.694;9.442;2023-02-01T02:26:26;3.90;99.90
19974;DHT22;10148;47.694;9.442;2023-02-01T02:29:26;3.90;99.90
19974;DHT22;10148;47.694;9.442;2023-02-01T02:35:21;3.90;99.90
19974;DHT22;10148;47.694;9.442;2023-02-01T02:40:52;3.90;99.90
19974;DHT22;10148;47.694;9.442;2023-02-01T02:43:30;3.90;99.90
19974;DHT22;10148;47.694;9.442;2023-02-01T02:46:23;3.90;99.90
19974;DHT22;10148;47.694;9.442;2023-02-01T02:49:49;3.90;99.90
19974;DHT22;10148;47.694;9.442;2023-02-01T02:52:40;3.80;99.90
19974;DHT22;10148;47.694;9.442;2023-02-01T02:55:26;3.80;99.90
19974;DHT22;10148;47.694;9.442;2023-02-01T02:57:55;3.80;99.90
19974;DHT22;10148;47.694;9.442;2023-02-01T03:00:40;3.80;99.90
19974;DHT22;10148;47.694;9.442;2023-02-01T03:03:25;3.80;99.90
19974;DHT22;10148;47.694;9.442;2023-02-01T03:06:17;3.70;99.90
19974;DHT22;10148;47.694;9.442;2023-02-01T03:08:44;3.70;99.90
19974;DHT22;10148;47.694;9.442;2023-02-01T03:11:13;3.70;99.90
19974;DHT22;10148;47.694;9.442;2023-02-01T03:13:54;3.70;99.90
19974;DHT22;10148;47.694;9.442;2023-02-01T03:16:33;3.70;99.90
19974;DHT22;10148;47.694;9.442;2023-02-01T03:19:05;3.70;99.90
19974;DHT22;10148;47.694;9.442;2023-02-01T03:21:39;3.70;99.90
19974;DHT22;10148;47.694;9.442;2023-02-01T03:24:14;3.70;99.90
19974;DHT22;10148;47.694;9.442;2023-02-01T03:26:45;3.70;99.90
19974;DHT22;10148;47.694;9.442;2023-02-01T03:29:16;3.70;99.90
19974;DHT22;10148;47.694;9.442;2023-02-01T03:31:42;3.70;99.90
19974;DHT22;10148;47.694;9.442;2023-02-01T03:34:08;3.70;99.90
19974;DHT22;10148;47.694;9.442;2023-02-01T03:36:49;3.70;99.90
19974;DHT22;10148;47.694;9.442;2023-02-01T03:39:21;3.70;99.90
19974;DHT22;10148;47.694;9.442;2023-02-01T03:41:54;3.70;99.90
19974;DHT22;10148;47.694;9.442;2023-02-01T03:44:26;3.70;99.90
19974;DHT22;10148;47.694;9.442;2023-02-01T03:46:59;3.70;99.90
19974;DHT22;10148;47.694;9.442;2023-02-01T03:51:58;3.70;99.90
19974;DHT22;10148;47.694;9.442;2023-02-01T03:54:26;3.70;99.90
19974;DHT22;10148;47.694;9.442;2023-02-01T03:56:55;3.70;99.90
19974;DHT22;10148;47.694;9.442;2023-02-01T03:59:21;3.70;99.90
19974;DHT22;10148;47.694;9.442;2023-02-01T04:01:46;3.70;99.90
19974;DHT22;10148;47.694;9.442;2023-02-01T04:04:12;3.70;99.90
19974;DHT22;10148;47.694;9.442;2023-02-01T04:06:45;3.70;99.90
19974;DHT22;10148;47.694;9.442;2023-02-01T04:09:11;3.70;99.90
19974;DHT22;10148;47.694;9.442;2023-02-01T04:11:37;3.70;99.90
19974;DHT22;10148;47.694;9.442;2023-02-01T04:14:02;3.70;99.90
19974;DHT22;10148;47.694;9.442;2023-02-01T04:16:32;3.70;99.90
19974;DHT22;10148;47.694;9.442;2023-02-01T04:18:58;3.70;99.90
19974;DHT22;10148;47.694;9.442;2023-02-01T04:21:25;3.70;99.90
19974;DHT22;10148;47.694;9.442;2023-02-01T04:23:50;3.70;99.90
19974;DHT22;10148;47.694;9.442;2023-02-01T04:26:16;3.70;99.90
19974;DHT22;10148;47.694;9.442;2023-02-01T04:28:42;3.60;99.90
19974;DHT22;10148;47.694;9.442;2023-02-01T04:31:08;3.60;99.90
19974;DHT22;10148;47.694;9.442;2023-02-01T04:33:33;3.60;99.90
19974;DHT22;10148;47.694;9.442;2023-02-01T04:35:59;3.60;99.90
19974;DHT22;10148;47.694;9.442;2023-02-01T04:38:24;3.60;99.90
19974;DHT22;10148;47.694;9.442;2023-02-01T04:40:50;3.60;99.90
19974;DHT22;10148;47.694;9.442;2023-02-01T04:43:17;3.50;99.90
19974;DHT22;10148;47.694;9.442;2023-02-01T04:45:47;3.50;99.90
19974;DHT22;10148;47.694;9.442;2023-02-01T04:48:12;3.50;99.90
19974;DHT22;10148;47.694;9.442;2023-02-01T04:50:38;3.50;99.90
19974;DHT22;10148;47.694;9.442;2023-02-01T04:53:03;3.50;99.90
19974;DHT22;10148;47.694;9.442;2023-02-01T04:55:29;3.50;99.90
19974;DHT22;10148;47.694;9.442;2023-02-01T04:57:56;3.40;99.90
19974;DHT22;10148;47.694;9.442;2023-02-01T05:00:22;3.40;99.90
19974;DHT22;10148;47.694;9.442;2023-02-01T05:02:47;3.40;99.90
19974;DHT22;10148;47.694;9.442;2023-02-01T05:05:13;3.40;99.90
19974;DHT22;10148;47.694;9.442;2023-02-01T05:07:38;3.40;99.90
19974;DHT22;10148;47.694;9.442;2023-02-01T05:10:04;3.40;99.90
19974;DHT22;10148;47.694;9.442;2023-02-01T05:12:30;3.40;99.90
19974;DHT22;10148;47.694;9.442;2023-02-01T05:15:14;3.40;99.90
19974;DHT22;10148;47.694;9.442;2023-02-01T05:17:40;3.40;99.90
19974;DHT22;10148;47.694;9.442;2023-02-01T05:20:06;3.30;99.90
19974;DHT22;10148;47.694;9.442;2023-02-01T05:22:32;3.30;99.90
19974;DHT22;10148;47.694;9.442;2023-02-01T05:24:58;3.30;99.90
19974;DHT22;10148;47.694;9.442;2023-02-01T05:27:23;3.30;99.90
19974;DHT22;10148;47.694;9.442;2023-02-01T05:29:49;3.30;99.90
19974;DHT22;10148;47.694;9.442;2023-02-01T05:32:14;3.30;99.90
19974;DHT22;10148;47.694;9.442;2023-02-01T05:34:40;3.30;99.90
19974;DHT22;10148;47.694;9.442;2023-02-01T05:37:05;3.30;99.90
19974;DHT22;10148;47.694;9.442;2023-02-01T05:39:31;3.30;99.90
19974;DHT22;10148;47.694;9.442;2023-02-01T05:41:56;3.30;99.90
19974;DHT22;10148;47.694;9.442;2023-02-01T05:44:22;3.30;99.90
19974;DHT22;10148;47.694;9.442;2023-02-01T05:46:47;3.30;99.90
19974;DHT22;10148;47.694;9.442;2023-02-01T05:49:13;3.30;99.90
19974;DHT22;10148;47.694;9.442;2023-02-01T05:51:38;3.30;99.90
19974;DHT22;10148;47.694;9.442;2023-02-01T05:54:04;3.40;99.90
19974;DHT22;10148;47.694;9.442;2023-02-01T05:56:29;3.40;99.90
19974;DHT22;10148;47.694;9.442;2023-02-01T05:58:55;3.40;99.90
19974;DHT22;10148;47.694;9.442;2023-02-01T06:01:20;3.40;99.90
19974;DHT22;10148;47.694;9.442;2023-02-01T06:03:46;3.40;99.90
19974;DHT22;10148;47.694;9.442;2023-02-01T06:06:12;3.40;99.90
19974;DHT22;10148;47.694;9.442;2023-02-01T06:08:37;3.40;99.90
19974;DHT22;10148;47.694;9.442;2023-02-01T06:11:05;3.40;99.90
19974;DHT22;10148;47.694;9.442;2023-02-01T06:13:32;3.40;99.90
19974;DHT22;10148;47.694;9.442;2023-02-01T06:15:57;3.40;99.90
19974;DHT22;10148;47.694;9.442;2023-02-01T06:18:24;3.40;99.90
19974;DHT22;10148;47.694;9.442;2023-02-01T06:20:57;3.40;99.90
19974;DHT22;10148;47.694;9.442;2023-02-01T06:23:23;3.40;99.90
19974;DHT22;10148;47.694;9.442;2023-02-01T06:25:53;3.40;99.90
19974;DHT22;10148;47.694;9.442;2023-02-01T06:28:23;3.40;99.90
19974;DHT22;10148;47.694;9.442;2023-02-01T06:30:49;3.40;99.90
19974;DHT22;10148;47.694;9.442;2023-02-01T06:33:14;3.40;99.90
19974;DHT22;10148;47.694;9.442;2023-02-01T06:35:41;3.40;99.90
19974;DHT22;10148;47.694;9.442;2023-02-01T06:38:09;3.40;99.90
19974;DHT22;10148;47.694;9.442;2023-02-01T06:40:35;3.40;99.90
19974;DHT22;10148;47.694;9.442;2023-02-01T06:43:01;3.40;99.90
19974;DHT22;10148;47.694;9.442;2023-02-01T06:45:26;3.40;99.90
19974;DHT22;10148;47.694;9.442;2023-02-01T06:47:52;3.40;99.90
19974;DHT22;10148;47.694;9.442;2023-02-01T06:50:17;3.40;99.90
19974;DHT22;10148;47.694;9.442;2023-02-01T06:52:43;3.40;99.90
19974;DHT22;10148;47.694;9.442;2023-02-01T06:55:08;3.40;99.90
19974;DHT22;10148;47.694;9.442;2023-02-01T06:57:34;3.30;99.90
19974;DHT22;10148;47.694;9.442;2023-02-01T07:00:02;3.30;99.90
19974;DHT22;10148;47.694;9.442;2023-02-01T07:02:28;3.30;99.90
19974;DHT22;10148;47.694;9.442;2023-02-01T07:04:54;3.30;99.90
19974;DHT22;10148;47.694;9.442;2023-02-01T07:07:19;3.30;99.90
19974;DHT22;10148;47.694;9.442;2023-02-01T07:09:48;3.30;99.90
19974;DHT22;10148;47.694;9.442;2023-02-01T07:12:14;3.30;99.90
19974;DHT22;10148;47.694;9.442;2023-02-01T07:14:39;3.30;99.90
19974;DHT22;10148;47.694;9.442;2023-02-01T07:17:05;3.30;99.90
19974;DHT22;10148;47.694;9.442;2023-02-01T07:19:30;3.30;99.90
19974;DHT22;10148;47.694;9.442;2023-02-01T07:21:56;3.30;99.90
19974;DHT22;10148;47.694;9.442;2023-02-01T07:24:21;3.30;99.90
19974;DHT22;10148;47.694;9.442;2023-02-01T07:26:47;3.30;99.90
19974;DHT22;10148;47.694;9.442;2023-02-01T07:29:13;3.30;99.90
19974;DHT22;10148;47.694;9.442;2023-02-01T07:31:38;3.40;99.90
19974;DHT22;10148;47.694;9.442;2023-02-01T07:34:04;3.40;99.90
19974;DHT22;10148;47.694;9.442;2023-02-01T07:36:29;3.40;99.90
19974;DHT22;10148;47.694;9.442;2023-02-01T07:38:55;3.40;99.90
19974;DHT22;10148;47.694;9.442;2023-02-01T07:41:21;3.40;99.90
19974;DHT22;10148;47.694;9.442;2023-02-01T07:43:46;3.40;99.90
19974;DHT22;10148;47.694;9.442;2023-02-01T07:46:12;3.40;99.90
19974;DHT22;10148;47.694;9.442;2023-02-01T07:48:39;3.40;99.90
19974;DHT22;10148;47.694;9.442;2023-02-01T07:51:08;3.40;99.90
19974;DHT22;10148;47.694;9.442;2023-02-01T07:53:35;3.50;99.90
19974;DHT22;10148;47.694;9.442;2023-02-01T07:56:01;3.40;99.90
19974;DHT22;10148;47.694;9.442;2023-02-01T07:58:27;3.40;99.90
19974;DHT22;10148;47.694;9.442;2023-02-01T08:00:53;3.40;99.90
19974;DHT22;10148;47.694;9.442;2023-02-01T08:03:37;3.50;99.90
19974;DHT22;10148;47.694;9.442;2023-02-01T08:06:03;3.50;99.90
19974;DHT22;10148;47.694;9.442;2023-02-01T08:08:29;3.50;99.90
19974;DHT22;10148;47.694;9.442;2023-02-01T08:10:59;3.50;99.90
19974;DHT22;10148;47.694;9.442;2023-02-01T08:13:24;3.50;99.90
19974;DHT22;10148;47.694;9.442;2023-02-01T08:15:50;3.50;99.90
19974;DHT22;10148;47.694;9.442;2023-02-01T08:18:15;3.50;99.90
19974;DHT22;10148;47.694;9.442;2023-02-01T08:20:43;3.50;99.90
19974;DHT22;10148;47.694;9.442;2023-02-01T08:23:11;3.50;99.90
19974;DHT22;10148;47.694;9.442;2023-02-01T08:25:37;3.50;99.90
19974;DHT22;10148;47.694;9.442;2023-02-01T08:28:06;3.50;99.90
19974;DHT22;10148;47.694;9.442;2023-02-01T08:30:31;3.50;99.90
19974;DHT22;10148;47.694;9.442;2023-02-01T08:32:57;3.50;99.90
19974;DHT22;10148;47.694;9.442;2023-02-01T08:35:23;3.40;99.90
19974;DHT22;10148;47.694;9.442;2023-02-01T08:37:50;3.50;99.90
19974;DHT22;10148;47.694;9.442;2023-02-01T08:40:16;3.60;99.90
19974;DHT22;10148;47.694;9.442;2023-02-01T08:42:41;3.60;99.90
19974;DHT22;10148;47.694;9.442;2023-02-01T08:45:25;3.60;99.90
19974;DHT22;10148;47.694;9.442;2023-02-01T08:47:52;3.60;99.90
19974;DHT22;10148;47.694;9.442;2023-02-01T08:50:18;3.60;99.90
19974;DHT22;10148;47.694;9.442;2023-02-01T08:52:45;3.60;99.90
19974;DHT22;10148;47.694;9.442;2023-02-01T08:55:11;3.60;99.90
19974;DHT22;10148;47.694;9.442;2023-02-01T08:57:38;3.70;99.90
19974;DHT22;10148;47.694;9.442;2023-02-01T09:00:05;3.70;99.90
19974;DHT22;10148;47.694;9.442;2023-02-01T09:02:31;3.70;99.90
19974;DHT22;10148;47.694;9.442;2023-02-01T09:04:56;3.80;99.90
19974;DHT22;10148;47.694;9.442;2023-02-01T09:07:22;3.80;99.90
19974;DHT22;10148;47.694;9.442;2023-02-01T09:09:48;3.90;99.90
19974;DHT22;10148;47.694;9.442;2023-02-01T09:12:13;3.90;99.90
19974;DHT22;10148;47.694;9.442;2023-02-01T09:14:39;3.90;99.90
19974;DHT22;10148;47.694;9.442;2023-02-01T09:17:05;3.90;99.90
19974;DHT22;10148;47.694;9.442;2023-02-01T09:19:33;3.90;99.90
19974;DHT22;10148;47.694;9.442;2023-02-01T09:21:59;3.90;99.90
19974;DHT22;10148;47.694;9.442;2023-02-01T09:24:24;3.90;99.90
19974;DHT22;10148;47.694;9.442;2023-02-01T09:26:50;3.90;99.90
19974;DHT22;10148;47.694;9.442;2023-02-01T09:29:16;4.00;99.90
19974;DHT22;10148;47.694;9.442;2023-02-01T09:31:41;4.10;99.90
19974;DHT22;10148;47.694;9.442;2023-02-01T09:34:07;4.00;99.90
19974;DHT22;10148;47.694;9.442;2023-02-01T09:36:33;4.10;99.90
19974;DHT22;10148;47.694;9.442;2023-02-01T09:38:59;4.00;99.90
19974;DHT22;10148;47.694;9.442;2023-02-01T09:47:11;4.10;99.90
19974;DHT22;10148;47.694;9.442;2023-02-01T09:49:43;4.00;99.90
19974;DHT22;10148;47.694;9.442;2023-02-01T09:52:12;4.10;99.90
19974;DHT22;10148;47.694;9.442;2023-02-01T09:54:49;4.10;99.90
19974;DHT22;10148;47.694;9.442;2023-02-01T09:57:24;4.10;99.90
19974;DHT22;10148;47.694;9.442;2023-02-01T10:00:00;4.10;99.90
19974;DHT22;10148;47.694;9.442;2023-02-01T10:02:28;4.20;99.90
19974;DHT22;10148;47.694;9.442;2023-02-01T10:04:57;4.20;99.90
19974;DHT22;10148;47.694;9.442;2023-02-01T10:07:38;4.30;99.90
19974;DHT22;10148;47.694;9.442;2023-02-01T10:16:17;4.50;99.90
19974;DHT22;10148;47.694;9.442;2023-02-01T10:19:18;4.50;99.90
19974;DHT22;10148;47.694;9.442;2023-02-01T10:27:21;4.70;99.90
19974;DHT22;10148;47.694;9.442;2023-02-01T10:29:54;4.70;99.90
19974;DHT22;10148;47.694;9.442;2023-02-01T10:32:23;4.80;99.90
19974;DHT22;10148;47.694;9.442;2023-02-01T10:34:55;4.70;99.90
19974;DHT22;10148;47.694;9.442;2023-02-01T10:37:29;4.80;99.90
19974;DHT22;10148;47.694;9.442;2023-02-01T10:39:56;4.90;99.90
19974;DHT22;10148;47.694;9.442;2023-02-01T10:42:26;4.90;99.90
19974;DHT22;10148;47.694;9.442;2023-02-01T10:44:53;4.80;99.90
19974;DHT22;10148;47.694;9.442;2023-02-01T10:47:19;4.80;99.90
19974;DHT22;10148;47.694;9.442;2023-02-01T10:52:48;4.80;99.90
19974;DHT22;10148;47.694;9.442;2023-02-01T10:55:40;4.80;99.90
19974;DHT22;10148;47.694;9.442;2023-02-01T10:58:20;4.80;99.90
19974;DHT22;10148;47.694;9.442;2023-02-01T11:01:09;4.90;99.90
19974;DHT22;10148;47.694;9.442;2023-02-01T11:03:41;4.90;99.90
19974;DHT22;10148;47.694;9.442;2023-02-01T11:08:47;5.00;99.90
19974;DHT22;10148;47.694;9.442;2023-02-01T11:11:13;5.10;99.90
19974;DHT22;10148;47.694;9.442;2023-02-01T11:13:39;5.20;99.90
19974;DHT22;10148;47.694;9.442;2023-02-01T11:16:06;5.30;99.90
19974;DHT22;10148;47.694;9.442;2023-02-01T11:18:37;5.30;99.90
19974;DHT22;10148;47.694;9.442;2023-02-01T11:21:03;5.40;99.90
19974;DHT22;10148;47.694;9.442;2023-02-01T11:23:31;5.50;99.90
19974;DHT22;10148;47.694;9.442;2023-02-01T11:26:26;5.60;99.90
19974;DHT22;10148;47.694;9.442;2023-02-01T11:29:04;5.50;99.90
19974;DHT22;10148;47.694;9.442;2023-02-01T11:31:30;5.50;99.90
19974;DHT22;10148;47.694;9.442;2023-02-01T11:34:04;5.40;99.90
19974;DHT22;10148;47.694;9.442;2023-02-01T11:36:32;5.40;99.90
19974;DHT22;10148;47.694;9.442;2023-02-01T11:39:17;5.30;99.90
19974;DHT22;10148;47.694;9.442;2023-02-01T11:44:29;5.50;99.90
19974;DHT22;10148;47.694;9.442;2023-02-01T11:46:55;5.40;99.90
19974;DHT22;10148;47.694;9.442;2023-02-01T11:49:25;5.40;99.90
19974;DHT22;10148;47.694;9.442;2023-02-01T11:52:08;5.50;99.90
19974;DHT22;10148;47.694;9.442;2023-02-01T12:00:43;5.60;99.90
19974;DHT22;10148;47.694;9.442;2023-02-01T12:17:41;5.60;99.90
19974;DHT22;10148;47.694;9.442;2023-02-01T12:20:36;5.70;99.90
19974;DHT22;10148;47.694;9.442;2023-02-01T12:25:57;5.70;99.90
19974;DHT22;10148;47.694;9.442;2023-02-01T12:36:49;6.20;99.90
19974;DHT22;10148;47.694;9.442;2023-02-01T12:42:03;7.30;99.90
19974;DHT22;10148;47.694;9.442;2023-02-01T12:44:43;7.80;99.90
19974;DHT22;10148;47.694;9.442;2023-02-01T12:50:02;8.20;99.90
19974;DHT22;10148;47.694;9.442;2023-02-01T12:52:47;8.70;99.90
19974;DHT22;10148;47.694;9.442;2023-02-01T12:58:11;7.90;99.90
19974;DHT22;10148;47.694;9.442;2023-02-01T13:00:52;7.20;99.90
19974;DHT22;10148;47.694;9.442;2023-02-01T13:06:26;6.70;99.90
19974;DHT22;10148;47.694;9.442;2023-02-01T13:11:34;6.40;99.90
19974;DHT22;10148;47.694;9.442;2023-02-01T13:16:35;6.10;99.90
19974;DHT22;10148;47.694;9.442;2023-02-01T13:19:17;6.10;99.90
19974;DHT22;10148;47.694;9.442;2023-02-01T13:21:51;6.00;99.90
19974;DHT22;10148;47.694;9.442;2023-02-01T13:24:44;5.80;99.90
19974;DHT22;10148;47.694;9.442;2023-02-01T13:27:12;5.80;99.90
19974;DHT22;10148;47.694;9.442;2023-02-01T13:29:46;5.70;99.90
19974;DHT22;10148;47.694;9.442;2023-02-01T13:35:23;5.60;99.90
19974;DHT22;10148;47.694;9.442;2023-02-01T13:43:44;5.50;99.90
19974;DHT22;10148;47.694;9.442;2023-02-01T13:46:13;5.40;99.90
19974;DHT22;10148;47.694;9.442;2023-02-01T13:51:05;5.30;99.90
19974;DHT22;10148;47.694;9.442;2023-02-01T13:53:34;5.30;99.90
19974;DHT22;10148;47.694;9.442;2023-02-01T13:56:17;5.40;99.90
19974;DHT22;10148;47.694;9.442;2023-02-01T13:58:44;5.40;99.90
19974;DHT22;10148;47.694;9.442;2023-02-01T14:03:53;5.40;99.90
19974;DHT22;10148;47.694;9.442;2023-02-01T14:09:18;5.40;99.90
19974;DHT22;10148;47.694;9.442;2023-02-01T14:11:54;5.40;99.90
19974;DHT22;10148;47.694;9.442;2023-02-01T14:19:32;5.40;99.90
19974;DHT22;10148;47.694;9.442;2023-02-01T14:21:59;5.40;99.90
19974;DHT22;10148;47.694;9.442;2023-02-01T14:24:32;5.40;99.90
19974;DHT22;10148;47.694;9.442;2023-02-01T14:27:19;5.30;99.90
19974;DHT22;10148;47.694;9.442;2023-02-01T14:29:57;5.30;99.90
19974;DHT22;10148;47.694;9.442;2023-02-01T14:32:30;5.30;99.90
19974;DHT22;10148;47.694;9.442;2023-02-01T14:35:00;5.40;99.90
19974;DHT22;10148;47.694;9.442;2023-02-01T14:37:35;5.40;99.90
19974;DHT22;10148;47.694;9.442;2023-02-01T14:42:49;5.40;99.90
19974;DHT22;10148;47.694;9.442;2023-02-01T14:47:47;5.30;99.90
19974;DHT22;10148;47.694;9.442;2023-02-01T14:50:31;5.30;99.90
19974;DHT22;10148;47.694;9.442;2023-02-01T15:06:47;5.40;99.90
19974;DHT22;10148;47.694;9.442;2023-02-01T15:09:32;5.40;99.90
19974;DHT22;10148;47.694;9.442;2023-02-01T15:14:38;5.50;99.90
19974;DHT22;10148;47.694;9.442;2023-02-01T15:19:57;5.50;99.90
19974;DHT22;10148;47.694;9.442;2023-02-01T15:22:24;5.50;99.90
19974;DHT22;10148;47.694;9.442;2023-02-01T15:24:54;5.50;99.90
19974;DHT22;10148;47.694;9.442;2023-02-01T15:27:20;5.50;99.90
19974;DHT22;10148;47.694;9.442;2023-02-01T15:29:46;5.50;99.90
19974;DHT22;10148;47.694;9.442;2023-02-01T15:32:33;5.40;99.90
19974;DHT22;10148;47.694;9.442;2023-02-01T15:34:59;5.50;99.90
19974;DHT22;10148;47.694;9.442;2023-02-01T15:37:28;5.50;99.90
19974;DHT22;10148;47.694;9.442;2023-02-01T15:42:33;5.50;99.90
19974;DHT22;10148;47.694;9.442;2023-02-01T15:44:59;5.50;99.90
19974;DHT22;10148;47.694;9.442;2023-02-01T15:47:30;5.40;99.90
19974;DHT22;10148;47.694;9.442;2023-02-01T15:49:59;5.40;99.90
19974;DHT22;10148;47.694;9.442;2023-02-01T15:52:36;5.40;99.90
19974;DHT22;10148;47.694;9.442;2023-02-01T15:55:08;5.40;99.90
19974;DHT22;10148;47.694;9.442;2023-02-01T15:57:42;5.40;99.90
19974;DHT22;10148;47.694;9.442;2023-02-01T16:00:25;5.30;99.90
19974;DHT22;10148;47.694;9.442;2023-02-01T16:05:33;5.30;99.90
19974;DHT22;10148;47.694;9.442;2023-02-01T16:08:22;5.30;99.90
19974;DHT22;10148;47.694;9.442;2023-02-01T16:10:50;5.30;99.90
19974;DHT22;10148;47.694;9.442;2023-02-01T16:13:17;5.30;99.90
19974;DHT22;10148;47.694;9.442;2023-02-01T16:15:43;5.30;99.90
19974;DHT22;10148;47.694;9.442;2023-02-01T16:18:10;5.30;99.90
19974;DHT22;10148;47.694;9.442;2023-02-01T16:20:36;5.30;99.90
19974;DHT22;10148;47.694;9.442;2023-02-01T16:23:03;5.20;99.90
19974;DHT22;10148;47.694;9.442;2023-02-01T16:25:29;5.20;99.90
19974;DHT22;10148;47.694;9.442;2023-02-01T16:27:55;5.20;99.90
19974;DHT22;10148;47.694;9.442;2023-02-01T16:30:20;5.20;99.90
19974;DHT22;10148;47.694;9.442;2023-02-01T16:32:51;5.20;99.90
19974;DHT22;10148;47.694;9.442;2023-02-01T16:35:27;5.20;99.90
19974;DHT22;10148;47.694;9.442;2023-02-01T16:37:54;5.20;99.90
19974;DHT22;10148;47.694;9.442;2023-02-01T16:40:20;5.20;99.90
19974;DHT22;10148;47.694;9.442;2023-02-01T16:42:49;5.20;99.90
19974;DHT22;10148;47.694;9.442;2023-02-01T16:45:15;5.10;99.90
19974;DHT22;10148;47.694;9.442;2023-02-01T16:47:45;5.10;99.90
19974;DHT22;10148;47.694;9.442;2023-02-01T16:50:17;5.10;99.90
19974;DHT22;10148;47.694;9.442;2023-02-01T16:52:44;5.10;99.90
19974;DHT22;10148;47.694;9.442;2023-02-01T16:55:14;5.20;99.90
19974;DHT22;10148;47.694;9.442;2023-02-01T16:57:41;5.10;99.90
19974;DHT22;10148;47.694;9.442;2023-02-01T17:00:11;5.10;99.90
19974;DHT22;10148;47.694;9.442;2023-02-01T17:02:37;5.10;99.90
19974;DHT22;10148;47.694;9.442;2023-02-01T17:05:03;5.10;99.90
19974;DHT22;10148;47.694;9.442;2023-02-01T17:07:29;5.10;99.90
19974;DHT22;10148;47.694;9.442;2023-02-01T17:09:55;5.10;99.90
19974;DHT22;10148;47.694;9.442;2023-02-01T17:12:24;5.20;99.90
19974;DHT22;10148;47.694;9.442;2023-02-01T17:14:51;5.20;99.90
19974;DHT22;10148;47.694;9.442;2023-02-01T17:17:18;5.20;99.90
19974;DHT22;10148;47.694;9.442;2023-02-01T17:19:50;5.10;99.90
19974;DHT22;10148;47.694;9.442;2023-02-01T17:22:18;5.10;99.90
19974;DHT22;10148;47.694;9.442;2023-02-01T17:24:43;5.10;99.90
19974;DHT22;10148;47.694;9.442;2023-02-01T17:27:09;5.10;99.90
19974;DHT22;10148;47.694;9.442;2023-02-01T17:29:35;5.10;99.90
19974;DHT22;10148;47.694;9.442;2023-02-01T17:32:01;5.10;99.90
19974;DHT22;10148;47.694;9.442;2023-02-01T17:34:27;5.10;99.90
19974;DHT22;10148;47.694;9.442;2023-02-01T17:36:53;5.10;99.90
19974;DHT22;10148;47.694;9.442;2023-02-01T17:39:18;5.10;99.90
19974;DHT22;10148;47.694;9.442;2023-02-01T17:42:04;5.10;99.90
19974;DHT22;10148;47.694;9.442;2023-02-01T17:44:30;5.10;99.90
19974;DHT22;10148;47.694;9.442;2023-02-01T17:46:56;5.10;99.90
19974;DHT22;10148;47.694;9.442;2023-02-01T17:49:23;5.10;99.90
19974;DHT22;10148;47.694;9.442;2023-02-01T17:51:49;5.10;99.90
19974;DHT22;10148;47.694;9.442;2023-02-01T17:54:16;5.10;99.90
19974;DHT22;10148;47.694;9.442;2023-02-01T17:56:42;5.10;99.90
19974;DHT22;10148;47.694;9.442;2023-02-01T17:59:08;5.00;99.90
19974;DHT22;10148;47.694;9.442;2023-02-01T18:01:34;5.10;99.90
19974;DHT22;10148;47.694;9.442;2023-02-01T18:03:59;5.10;99.90
19974;DHT22;10148;47.694;9.442;2023-02-01T18:06:26;5.10;99.90
19974;DHT22;10148;47.694;9.442;2023-02-01T18:08:51;5.10;99.90
19974;DHT22;10148;47.694;9.442;2023-02-01T18:11:21;5.10;99.90
19974;DHT22;10148;47.694;9.442;2023-02-01T18:13:48;5.10;99.90
19974;DHT22;10148;47.694;9.442;2023-02-01T18:18:49;5.10;99.90
19974;DHT22;10148;47.694;9.442;2023-02-01T18:21:16;5.10;99.90
19974;DHT22;10148;47.694;9.442;2023-02-01T18:23:43;5.10;99.90
19974;DHT22;10148;47.694;9.442;2023-02-01T18:26:13;5.10;99.90